sensor_id;sensor_type;location;lat;lon;timestamp;P1;durP1;ratioP1;P2;durP2;ratioP2
6821;SDS011;3449;48.728;8.968;2023-09-12T00:00:22;13.47;;;7.50;;
6821;SDS011;3449;48.728;8.968;2023-09-12T00:02:49;11.50;;;7.30;;
6821;SDS011;3449;48.728;8.968;2023-09-12T00:05:16;8.97;;;6.87;;
6821;SDS011;3449;48.728;8.968;2023-09-12T00:07:43;10.07;;;7.23;;
6821;SDS011;3449;48.728;8.968;2023-09-12T00:10:09;12.30;;;7.00;;
6821;SDS011;3449;48.728;8.968;2023-09-12T00:12:36;19.63;;;7.00;;
6821;SDS011;3449;48.728;8.968;2023-09-12T00:15:05;11.77;;;7.63;;
6821;SDS011;3449;48.728;8.968;2023-09-12T00:17:32;12.07;;;7.47;;
6821;SDS011;3449;48.728;8.968;2023-09-12T00:19:59;18.13;;;8.20;;
6821;SDS011;3449;48.728;8.968;2023-09-12T00:22:26;11.63;;;7.17;;
6821;SDS011;3449;48.728;8.968;2023-09-12T00:24:53;15.13;;;7.77;;
6821;SDS011;3449;48.728;8.968;2023-09-12T00:27:20;16.40;;;6.93;;
6821;SDS011;3449;48.728;8.968;2023-09-12T00:29:46;10.93;;;6.90;;
6821;SDS011;3449;48.728;8.968;2023-09-12T00:32:15;9.93;;;7.33;;
6821;SDS011;3449;48.728;8.968;2023-09-12T00:34:41;8.00;;;6.00;;
6821;SDS011;3449;48.728;8.968;2023-09-12T00:37:08;9.03;;;7.00;;
6821;SDS011;3449;48.728;8.968;2023-09-12T00:39:36;14.20;;;7.60;;
6821;SDS011;3449;48.728;8.968;2023-09-12T00:42:04;15.10;;;6.57;;
6821;SDS011;3449;48.728;8.968;2023-09-12T00:44:32;10.73;;;6.83;;
6821;SDS011;3449;48.728;8.968;2023-09-12T00:46:59;15.00;;;8.00;;
6821;SDS011;3449;48.728;8.968;2023-09-12T00:49:28;13.57;;;7.47;;
6821;SDS011;3449;48.728;8.968;2023-09-12T00:51:56;9.20;;;7.10;;
6821;SDS011;3449;48.728;8.968;2023-09-12T00:54:24;10.57;;;7.20;;
6821;SDS011;3449;48.728;8.968;2023-09-12T00:56:51;23.13;;;7.10;;
6821;SDS011;3449;48.728;8.968;2023-09-12T00:59:18;10.87;;;6.70;;
6821;SDS011;3449;48.728;8.968;2023-09-12T01:01:45;15.40;;;7.33;;
6821;SDS011;3449;48.728;8.968;2023-09-12T01:04:13;12.20;;;8.07;;
6821;SDS011;3449;48.728;8.968;2023-09-12T01:06:41;16.80;;;7.93;;
6821;SDS011;3449;48.728;8.968;2023-09-12T01:09:09;10.63;;;7.80;;
6821;SDS011;3449;48.728;8.968;2023-09-12T01:11:36;14.70;;;7.37;;
6821;SDS011;3449;48.728;8.968;2023-09-12T01:14:03;16.47;;;8.20;;
6821;SDS011;3449;48.728;8.968;2023-09-12T01:16:30;13.43;;;8.30;;
6821;SDS011;3449;48.728;8.968;2023-09-12T01:18:56;20.23;;;7.10;;
6821;SDS011;3449;48.728;8.968;2023-09-12T01:21:33;15.17;;;7.93;;
6821;SDS011;3449;48.728;8.968;2023-09-12T01:27:19;11.93;;;7.57;;
6821;SDS011;3449;48.728;8.968;2023-09-12T01:29:53;13.27;;;7.77;;
6821;SDS011;3449;48.728;8.968;2023-09-12T01:32:22;17.03;;;7.93;;
6821;SDS011;3449;48.728;8.968;2023-09-12T01:34:49;21.20;;;8.10;;
6821;SDS011;3449;48.728;8.968;2023-09-12T01:37:16;17.07;;;7.77;;
6821;SDS011;3449;48.728;8.968;2023-09-12T01:39:43;12.83;;;7.23;;
6821;SDS011;3449;48.728;8.968;2023-09-12T01:42:10;14.30;;;8.77;;
6821;SDS011;3449;48.728;8.968;2023-09-12T01:44:42;13.50;;;8.60;;
6821;SDS011;3449;48.728;8.968;2023-09-12T01:47:10;16.20;;;8.00;;
6821;SDS011;3449;48.728;8.968;2023-09-12T01:49:39;10.57;;;7.80;;
6821;SDS011;3449;48.728;8.968;2023-09-12T01:52:09;11.80;;;8.00;;
6821;SDS011;3449;48.728;8.968;2023-09-12T01:54:36;13.23;;;8.60;;
6821;SDS011;3449;48.728;8.968;2023-09-12T01:57:04;9.80;;;7.40;;
6821;SDS011;3449;48.728;8.968;2023-09-12T01:59:33;16.70;;;7.77;;
6821;SDS011;3449;48.728;8.968;2023-09-12T02:02:01;14.20;;;7.60;;
6821;SDS011;3449;48.728;8.968;2023-09-12T02:04:28;14.10;;;7.60;;
6821;SDS011;3449;48.728;8.968;2023-09-12T02:06:55;13.20;;;7.07;;
6821;SDS011;3449;48.728;8.968;2023-09-12T02:09:23;15.80;;;8.07;;
6821;SDS011;3449;48.728;8.968;2023-09-12T02:11:50;19.30;;;7.30;;
6821;SDS011;3449;48.728;8.968;2023-09-12T02:14:17;11.50;;;8.30;;
6821;SDS011;3449;48.728;8.968;2023-09-12T02:16:44;14.90;;;8.00;;
6821;SDS011;3449;48.728;8.968;2023-09-12T02:19:12;15.13;;;8.00;;
6821;SDS011;3449;48.728;8.968;2023-09-12T02:21:39;13.70;;;7.40;;
6821;SDS011;3449;48.728;8.968;2023-09-12T02:24:07;16.10;;;8.50;;
6821;SDS011;3449;48.728;8.968;2023-09-12T02:26:34;11.73;;;8.00;;
6821;SDS011;3449;48.728;8.968;2023-09-12T02:29:02;19.57;;;8.60;;
6821;SDS011;3449;48.728;8.968;2023-09-12T02:31:30;14.70;;;7.97;;
6821;SDS011;3449;48.728;8.968;2023-09-12T02:33:57;12.43;;;8.20;;
6821;SDS011;3449;48.728;8.968;2023-09-12T02:36:25;12.90;;;7.83;;
6821;SDS011;3449;48.728;8.968;2023-09-12T02:38:53;10.77;;;8.43;;
6821;SDS011;3449;48.728;8.968;2023-09-12T02:41:19;17.80;;;8.40;;
6821;SDS011;3449;48.728;8.968;2023-09-12T02:43:46;13.50;;;9.20;;
6821;SDS011;3449;48.728;8.968;2023-09-12T02:46:13;18.33;;;9.50;;
6821;SDS011;3449;48.728;8.968;2023-09-12T02:48:40;24.47;;;8.93;;
6821;SDS011;3449;48.728;8.968;2023-09-12T02:51:07;13.50;;;8.30;;
6821;SDS011;3449;48.728;8.968;2023-09-12T02:53:35;12.57;;;8.00;;
6821;SDS011;3449;48.728;8.968;2023-09-12T02:56:02;15.47;;;9.30;;
6821;SDS011;3449;48.728;8.968;2023-09-12T02:58:29;13.50;;;8.53;;
6821;SDS011;3449;48.728;8.968;2023-09-12T03:00:55;16.20;;;8.83;;
6821;SDS011;3449;48.728;8.968;2023-09-12T03:03:22;13.57;;;8.47;;
6821;SDS011;3449;48.728;8.968;2023-09-12T03:05:56;12.63;;;8.80;;
6821;SDS011;3449;48.728;8.968;2023-09-12T03:08:24;13.90;;;8.40;;
6821;SDS011;3449;48.728;8.968;2023-09-12T03:10:54;15.33;;;8.97;;
6821;SDS011;3449;48.728;8.968;2023-09-12T03:13:22;13.43;;;8.50;;
6821;SDS011;3449;48.728;8.968;2023-09-12T03:15:49;17.33;;;9.00;;
6821;SDS011;3449;48.728;8.968;2023-09-12T03:18:16;13.67;;;8.30;;
6821;SDS011;3449;48.728;8.968;2023-09-12T03:20:43;12.23;;;9.30;;
6821;SDS011;3449;48.728;8.968;2023-09-12T03:23:10;22.33;;;8.53;;
6821;SDS011;3449;48.728;8.968;2023-09-12T03:25:37;19.90;;;9.47;;
6821;SDS011;3449;48.728;8.968;2023-09-12T03:28:06;13.50;;;8.57;;
6821;SDS011;3449;48.728;8.968;2023-09-12T03:30:34;17.03;;;9.40;;
6821;SDS011;3449;48.728;8.968;2023-09-12T03:33:01;12.83;;;9.30;;
6821;SDS011;3449;48.728;8.968;2023-09-12T03:35:29;11.40;;;9.27;;
6821;SDS011;3449;48.728;8.968;2023-09-12T03:37:57;14.70;;;8.80;;
6821;SDS011;3449;48.728;8.968;2023-09-12T03:40:24;13.77;;;8.40;;
6821;SDS011;3449;48.728;8.968;2023-09-12T03:42:50;13.87;;;8.27;;
6821;SDS011;3449;48.728;8.968;2023-09-12T03:45:19;15.20;;;9.20;;
6821;SDS011;3449;48.728;8.968;2023-09-12T03:47:45;13.67;;;10.30;;
6821;SDS011;3449;48.728;8.968;2023-09-12T03:50:12;16.83;;;8.90;;
6821;SDS011;3449;48.728;8.968;2023-09-12T03:52:39;19.93;;;9.47;;
6821;SDS011;3449;48.728;8.968;2023-09-12T03:55:06;17.00;;;9.30;;
6821;SDS011;3449;48.728;8.968;2023-09-12T03:57:34;19.00;;;9.90;;
6821;SDS011;3449;48.728;8.968;2023-09-12T04:00:00;14.77;;;9.70;;
6821;SDS011;3449;48.728;8.968;2023-09-12T04:02:32;14.87;;;9.27;;
6821;SDS011;3449;48.728;8.968;2023-09-12T04:04:59;19.90;;;9.03;;
6821;SDS011;3449;48.728;8.968;2023-09-12T04:07:25;18.43;;;9.30;;
6821;SDS011;3449;48.728;8.968;2023-09-12T04:09:52;20.40;;;9.50;;
6821;SDS011;3449;48.728;8.968;2023-09-12T04:12:19;13.67;;;8.63;;
6821;SDS011;3449;48.728;8.968;2023-09-12T04:14:48;16.30;;;9.37;;
6821;SDS011;3449;48.728;8.968;2023-09-12T04:17:16;17.70;;;9.33;;
6821;SDS011;3449;48.728;8.968;2023-09-12T04:19:44;11.23;;;8.77;;
6821;SDS011;3449;48.728;8.968;2023-09-12T04:22:11;19.40;;;9.53;;
6821;SDS011;3449;48.728;8.968;2023-09-12T04:24:38;14.60;;;9.40;;
6821;SDS011;3449;48.728;8.968;2023-09-12T04:27:04;17.40;;;9.73;;
6821;SDS011;3449;48.728;8.968;2023-09-12T04:29:32;12.63;;;9.73;;
6821;SDS011;3449;48.728;8.968;2023-09-12T04:32:00;15.87;;;9.83;;
6821;SDS011;3449;48.728;8.968;2023-09-12T04:34:27;17.07;;;9.80;;
6821;SDS011;3449;48.728;8.968;2023-09-12T04:36:56;14.93;;;9.27;;
6821;SDS011;3449;48.728;8.968;2023-09-12T04:39:22;16.03;;;10.20;;
6821;SDS011;3449;48.728;8.968;2023-09-12T04:41:49;14.50;;;9.17;;
6821;SDS011;3449;48.728;8.968;2023-09-12T04:44:15;15.60;;;9.33;;
6821;SDS011;3449;48.728;8.968;2023-09-12T04:46:42;23.93;;;9.37;;
6821;SDS011;3449;48.728;8.968;2023-09-12T04:49:09;14.03;;;9.10;;
6821;SDS011;3449;48.728;8.968;2023-09-12T04:51:36;14.53;;;9.83;;
6821;SDS011;3449;48.728;8.968;2023-09-12T04:54:04;16.07;;;10.30;;
6821;SDS011;3449;48.728;8.968;2023-09-12T04:56:31;12.30;;;9.63;;
6821;SDS011;3449;48.728;8.968;2023-09-12T04:58:58;18.83;;;10.00;;
6821;SDS011;3449;48.728;8.968;2023-09-12T05:01:25;19.50;;;11.20;;
6821;SDS011;3449;48.728;8.968;2023-09-12T05:03:52;14.47;;;9.27;;
6821;SDS011;3449;48.728;8.968;2023-09-12T05:06:19;14.87;;;9.40;;
6821;SDS011;3449;48.728;8.968;2023-09-12T05:08:46;15.23;;;10.07;;
6821;SDS011;3449;48.728;8.968;2023-09-12T05:11:14;15.90;;;9.13;;
6821;SDS011;3449;48.728;8.968;2023-09-12T05:13:41;15.80;;;9.50;;
6821;SDS011;3449;48.728;8.968;2023-09-12T05:16:07;16.57;;;9.10;;
6821;SDS011;3449;48.728;8.968;2023-09-12T05:18:34;14.90;;;9.53;;
6821;SDS011;3449;48.728;8.968;2023-09-12T05:21:01;16.87;;;11.07;;
6821;SDS011;3449;48.728;8.968;2023-09-12T05:23:28;16.13;;;8.63;;
6821;SDS011;3449;48.728;8.968;2023-09-12T05:25:54;12.17;;;9.50;;
6821;SDS011;3449;48.728;8.968;2023-09-12T05:28:23;17.17;;;9.23;;
6821;SDS011;3449;48.728;8.968;2023-09-12T05:30:50;17.57;;;9.53;;
6821;SDS011;3449;48.728;8.968;2023-09-12T05:33:17;16.87;;;8.80;;
6821;SDS011;3449;48.728;8.968;2023-09-12T05:35:44;15.83;;;9.17;;
6821;SDS011;3449;48.728;8.968;2023-09-12T05:38:10;15.43;;;8.23;;
6821;SDS011;3449;48.728;8.968;2023-09-12T05:40:37;16.30;;;9.20;;
6821;SDS011;3449;48.728;8.968;2023-09-12T05:43:04;19.30;;;9.40;;
6821;SDS011;3449;48.728;8.968;2023-09-12T05:45:32;17.60;;;8.90;;
6821;SDS011;3449;48.728;8.968;2023-09-12T05:47:59;13.70;;;8.03;;
6821;SDS011;3449;48.728;8.968;2023-09-12T05:50:28;14.00;;;9.00;;
6821;SDS011;3449;48.728;8.968;2023-09-12T05:52:55;13.17;;;8.63;;
6821;SDS011;3449;48.728;8.968;2023-09-12T05:55:22;11.53;;;9.53;;
6821;SDS011;3449;48.728;8.968;2023-09-12T05:57:50;16.63;;;9.43;;
6821;SDS011;3449;48.728;8.968;2023-09-12T06:00:18;13.10;;;9.10;;
6821;SDS011;3449;48.728;8.968;2023-09-12T06:02:49;23.30;;;8.67;;
6821;SDS011;3449;48.728;8.968;2023-09-12T06:05:16;19.63;;;9.83;;
6821;SDS011;3449;48.728;8.968;2023-09-12T06:07:43;21.37;;;8.40;;
6821;SDS011;3449;48.728;8.968;2023-09-12T06:10:11;16.30;;;9.60;;
6821;SDS011;3449;48.728;8.968;2023-09-12T06:12:38;13.70;;;10.67;;
6821;SDS011;3449;48.728;8.968;2023-09-12T06:15:05;14.53;;;9.50;;
6821;SDS011;3449;48.728;8.968;2023-09-12T06:17:33;16.33;;;9.77;;
6821;SDS011;3449;48.728;8.968;2023-09-12T06:20:01;13.60;;;8.70;;
6821;SDS011;3449;48.728;8.968;2023-09-12T06:22:31;17.87;;;9.20;;
6821;SDS011;3449;48.728;8.968;2023-09-12T06:24:58;18.70;;;9.60;;
6821;SDS011;3449;48.728;8.968;2023-09-12T06:27:25;17.40;;;10.07;;
6821;SDS011;3449;48.728;8.968;2023-09-12T06:29:52;11.73;;;8.07;;
6821;SDS011;3449;48.728;8.968;2023-09-12T06:32:19;12.20;;;8.40;;
6821;SDS011;3449;48.728;8.968;2023-09-12T06:34:47;15.83;;;8.63;;
6821;SDS011;3449;48.728;8.968;2023-09-12T06:37:15;11.03;;;8.10;;
6821;SDS011;3449;48.728;8.968;2023-09-12T06:39:43;15.50;;;8.80;;
6821;SDS011;3449;48.728;8.968;2023-09-12T06:42:10;14.20;;;8.87;;
6821;SDS011;3449;48.728;8.968;2023-09-12T06:44:37;14.80;;;9.53;;
6821;SDS011;3449;48.728;8.968;2023-09-12T06:47:04;14.57;;;9.07;;
6821;SDS011;3449;48.728;8.968;2023-09-12T06:49:31;15.83;;;8.70;;
6821;SDS011;3449;48.728;8.968;2023-09-12T06:51:58;16.10;;;8.93;;
6821;SDS011;3449;48.728;8.968;2023-09-12T06:54:26;15.13;;;8.47;;
6821;SDS011;3449;48.728;8.968;2023-09-12T06:56:53;14.80;;;8.80;;
6821;SDS011;3449;48.728;8.968;2023-09-12T06:59:20;18.33;;;8.70;;
6821;SDS011;3449;48.728;8.968;2023-09-12T07:01:47;16.30;;;8.23;;
6821;SDS011;3449;48.728;8.968;2023-09-12T07:04:13;12.43;;;7.90;;
6821;SDS011;3449;48.728;8.968;2023-09-12T07:06:40;13.87;;;7.90;;
6821;SDS011;3449;48.728;8.968;2023-09-12T07:09:07;12.60;;;7.80;;
6821;SDS011;3449;48.728;8.968;2023-09-12T07:11:37;10.80;;;7.33;;
6821;SDS011;3449;48.728;8.968;2023-09-12T07:14:08;10.70;;;7.00;;
6821;SDS011;3449;48.728;8.968;2023-09-12T07:16:35;11.90;;;7.37;;
6821;SDS011;3449;48.728;8.968;2023-09-12T07:19:02;12.37;;;8.17;;
6821;SDS011;3449;48.728;8.968;2023-09-12T07:21:29;10.60;;;7.30;;
6821;SDS011;3449;48.728;8.968;2023-09-12T07:23:57;14.57;;;8.00;;
6821;SDS011;3449;48.728;8.968;2023-09-12T07:26:24;9.90;;;7.27;;
6821;SDS011;3449;48.728;8.968;2023-09-12T07:28:52;10.23;;;7.80;;
6821;SDS011;3449;48.728;8.968;2023-09-12T07:31:19;13.17;;;7.73;;
6821;SDS011;3449;48.728;8.968;2023-09-12T07:33:47;8.47;;;6.97;;
6821;SDS011;3449;48.728;8.968;2023-09-12T07:36:14;9.40;;;7.23;;
6821;SDS011;3449;48.728;8.968;2023-09-12T07:38:41;11.47;;;7.33;;
6821;SDS011;3449;48.728;8.968;2023-09-12T07:41:10;13.27;;;7.93;;
6821;SDS011;3449;48.728;8.968;2023-09-12T07:43:37;10.53;;;7.20;;
6821;SDS011;3449;48.728;8.968;2023-09-12T07:46:06;9.33;;;6.93;;
6821;SDS011;3449;48.728;8.968;2023-09-12T07:48:33;11.77;;;7.53;;
6821;SDS011;3449;48.728;8.968;2023-09-12T07:51:00;12.80;;;7.80;;
6821;SDS011;3449;48.728;8.968;2023-09-12T07:53:27;9.27;;;6.63;;
6821;SDS011;3449;48.728;8.968;2023-09-12T07:55:54;17.20;;;7.53;;
6821;SDS011;3449;48.728;8.968;2023-09-12T07:58:27;9.00;;;7.30;;
6821;SDS011;3449;48.728;8.968;2023-09-12T08:00:54;15.83;;;8.00;;
6821;SDS011;3449;48.728;8.968;2023-09-12T08:03:22;11.40;;;7.83;;
6821;SDS011;3449;48.728;8.968;2023-09-12T08:05:54;12.60;;;8.17;;
6821;SDS011;3449;48.728;8.968;2023-09-12T08:08:25;12.63;;;8.67;;
6821;SDS011;3449;48.728;8.968;2023-09-12T08:10:51;9.73;;;7.70;;
6821;SDS011;3449;48.728;8.968;2023-09-12T08:13:18;12.80;;;8.70;;
6821;SDS011;3449;48.728;8.968;2023-09-12T08:15:45;11.07;;;7.20;;
6821;SDS011;3449;48.728;8.968;2023-09-12T08:18:12;12.27;;;7.63;;
6821;SDS011;3449;48.728;8.968;2023-09-12T08:20:43;13.73;;;8.60;;
6821;SDS011;3449;48.728;8.968;2023-09-12T08:23:10;15.73;;;7.50;;
6821;SDS011;3449;48.728;8.968;2023-09-12T08:25:37;16.20;;;9.10;;
6821;SDS011;3449;48.728;8.968;2023-09-12T08:28:08;11.07;;;7.33;;
6821;SDS011;3449;48.728;8.968;2023-09-12T08:30:41;10.13;;;7.77;;
6821;SDS011;3449;48.728;8.968;2023-09-12T08:33:11;12.33;;;7.63;;
6821;SDS011;3449;48.728;8.968;2023-09-12T08:35:37;11.70;;;8.23;;
6821;SDS011;3449;48.728;8.968;2023-09-12T08:38:06;14.67;;;9.30;;
6821;SDS011;3449;48.728;8.968;2023-09-12T08:40:36;10.50;;;8.30;;
6821;SDS011;3449;48.728;8.968;2023-09-12T08:43:03;11.80;;;7.13;;
6821;SDS011;3449;48.728;8.968;2023-09-12T08:45:33;13.97;;;7.53;;
6821;SDS011;3449;48.728;8.968;2023-09-12T08:48:01;14.10;;;7.97;;
6821;SDS011;3449;48.728;8.968;2023-09-12T08:50:31;9.93;;;7.70;;
6821;SDS011;3449;48.728;8.968;2023-09-12T08:52:59;8.13;;;6.90;;
6821;SDS011;3449;48.728;8.968;2023-09-12T08:55:27;7.90;;;7.00;;
6821;SDS011;3449;48.728;8.968;2023-09-12T08:57:55;14.83;;;7.90;;
6821;SDS011;3449;48.728;8.968;2023-09-12T09:00:23;8.30;;;6.57;;
6821;SDS011;3449;48.728;8.968;2023-09-12T09:02:51;15.43;;;6.77;;
6821;SDS011;3449;48.728;8.968;2023-09-12T09:05:20;9.23;;;6.60;;
6821;SDS011;3449;48.728;8.968;2023-09-12T09:07:48;12.13;;;7.00;;
6821;SDS011;3449;48.728;8.968;2023-09-12T09:10:16;8.20;;;6.23;;
6821;SDS011;3449;48.728;8.968;2023-09-12T09:12:48;15.43;;;6.30;;
6821;SDS011;3449;48.728;8.968;2023-09-12T09:15:21;7.10;;;6.37;;
6821;SDS011;3449;48.728;8.968;2023-09-12T09:17:51;8.93;;;6.57;;
6821;SDS011;3449;48.728;8.968;2023-09-12T09:20:22;11.03;;;6.47;;
6821;SDS011;3449;48.728;8.968;2023-09-12T09:23:01;7.30;;;5.47;;
6821;SDS011;3449;48.728;8.968;2023-09-12T09:25:31;8.83;;;6.70;;
6821;SDS011;3449;48.728;8.968;2023-09-12T09:28:00;7.47;;;5.93;;
6821;SDS011;3449;48.728;8.968;2023-09-12T09:30:42;6.60;;;5.40;;
6821;SDS011;3449;48.728;8.968;2023-09-12T09:33:10;15.00;;;5.60;;
6821;SDS011;3449;48.728;8.968;2023-09-12T09:35:38;8.17;;;5.40;;
6821;SDS011;3449;48.728;8.968;2023-09-12T09:38:09;6.50;;;4.73;;
6821;SDS011;3449;48.728;8.968;2023-09-12T09:40:41;6.60;;;5.33;;
6821;SDS011;3449;48.728;8.968;2023-09-12T09:43:13;9.70;;;5.03;;
6821;SDS011;3449;48.728;8.968;2023-09-12T09:45:46;14.93;;;6.03;;
6821;SDS011;3449;48.728;8.968;2023-09-12T09:48:17;8.83;;;5.10;;
6821;SDS011;3449;48.728;8.968;2023-09-12T09:50:48;10.43;;;6.63;;
6821;SDS011;3449;48.728;8.968;2023-09-12T09:53:15;7.40;;;4.70;;
6821;SDS011;3449;48.728;8.968;2023-09-12T09:55:46;6.73;;;4.83;;
6821;SDS011;3449;48.728;8.968;2023-09-12T09:58:15;5.90;;;4.27;;
6821;SDS011;3449;48.728;8.968;2023-09-12T10:00:43;7.90;;;4.87;;
6821;SDS011;3449;48.728;8.968;2023-09-12T10:03:12;8.03;;;4.27;;
6821;SDS011;3449;48.728;8.968;2023-09-12T10:05:44;7.70;;;4.83;;
6821;SDS011;3449;48.728;8.968;2023-09-12T10:08:12;11.33;;;4.77;;
6821;SDS011;3449;48.728;8.968;2023-09-12T10:10:42;9.90;;;4.80;;
6821;SDS011;3449;48.728;8.968;2023-09-12T10:13:09;6.87;;;4.57;;
6821;SDS011;3449;48.728;8.968;2023-09-12T10:15:40;6.57;;;4.60;;
6821;SDS011;3449;48.728;8.968;2023-09-12T10:18:11;7.60;;;4.47;;
6821;SDS011;3449;48.728;8.968;2023-09-12T10:20:45;4.90;;;4.10;;
6821;SDS011;3449;48.728;8.968;2023-09-12T10:23:18;6.07;;;4.73;;
6821;SDS011;3449;48.728;8.968;2023-09-12T10:25:46;6.00;;;4.23;;
6821;SDS011;3449;48.728;8.968;2023-09-12T10:28:16;12.20;;;4.83;;
6821;SDS011;3449;48.728;8.968;2023-09-12T10:30:47;12.77;;;5.43;;
6821;SDS011;3449;48.728;8.968;2023-09-12T10:33:15;5.63;;;4.50;;
6821;SDS011;3449;48.728;8.968;2023-09-12T10:35:42;9.53;;;4.60;;
6821;SDS011;3449;48.728;8.968;2023-09-12T10:38:11;6.80;;;4.63;;
6821;SDS011;3449;48.728;8.968;2023-09-12T10:40:40;7.60;;;4.43;;
6821;SDS011;3449;48.728;8.968;2023-09-12T10:43:08;11.23;;;4.83;;
6821;SDS011;3449;48.728;8.968;2023-09-12T10:45:36;5.60;;;4.73;;
6821;SDS011;3449;48.728;8.968;2023-09-12T10:48:05;6.07;;;4.10;;
6821;SDS011;3449;48.728;8.968;2023-09-12T10:50:32;9.30;;;4.30;;
6821;SDS011;3449;48.728;8.968;2023-09-12T10:53:09;5.47;;;3.93;;
6821;SDS011;3449;48.728;8.968;2023-09-12T10:55:37;5.20;;;4.33;;
6821;SDS011;3449;48.728;8.968;2023-09-12T10:58:05;6.87;;;4.23;;
6821;SDS011;3449;48.728;8.968;2023-09-12T11:00:35;7.67;;;4.60;;
6821;SDS011;3449;48.728;8.968;2023-09-12T11:06:04;7.10;;;4.90;;
6821;SDS011;3449;48.728;8.968;2023-09-12T11:08:45;7.23;;;4.10;;
6821;SDS011;3449;48.728;8.968;2023-09-12T11:11:46;8.37;;;4.27;;
6821;SDS011;3449;48.728;8.968;2023-09-12T11:14:14;11.43;;;4.87;;
6821;SDS011;3449;48.728;8.968;2023-09-12T11:16:41;8.63;;;4.60;;
6821;SDS011;3449;48.728;8.968;2023-09-12T11:19:14;5.57;;;4.37;;
6821;SDS011;3449;48.728;8.968;2023-09-12T11:21:43;5.80;;;4.20;;
6821;SDS011;3449;48.728;8.968;2023-09-12T11:24:11;12.87;;;4.43;;
6821;SDS011;3449;48.728;8.968;2023-09-12T11:26:55;5.17;;;3.70;;
6821;SDS011;3449;48.728;8.968;2023-09-12T11:29:26;7.73;;;3.97;;
6821;SDS011;3449;48.728;8.968;2023-09-12T11:31:54;5.63;;;4.50;;
6821;SDS011;3449;48.728;8.968;2023-09-12T11:34:27;5.63;;;4.63;;
6821;SDS011;3449;48.728;8.968;2023-09-12T11:36:55;6.40;;;4.53;;
6821;SDS011;3449;48.728;8.968;2023-09-12T11:39:23;5.40;;;4.23;;
6821;SDS011;3449;48.728;8.968;2023-09-12T11:41:51;7.00;;;4.47;;
6821;SDS011;3449;48.728;8.968;2023-09-12T11:44:18;4.03;;;3.70;;
6821;SDS011;3449;48.728;8.968;2023-09-12T11:46:47;5.30;;;3.70;;
6821;SDS011;3449;48.728;8.968;2023-09-12T11:49:14;4.73;;;4.33;;
6821;SDS011;3449;48.728;8.968;2023-09-12T11:51:47;5.80;;;4.40;;
6821;SDS011;3449;48.728;8.968;2023-09-12T11:54:15;7.30;;;4.50;;
6821;SDS011;3449;48.728;8.968;2023-09-12T11:56:46;9.00;;;5.00;;
6821;SDS011;3449;48.728;8.968;2023-09-12T11:59:14;7.80;;;4.80;;
6821;SDS011;3449;48.728;8.968;2023-09-12T12:01:43;5.90;;;4.50;;
6821;SDS011;3449;48.728;8.968;2023-09-12T12:04:11;5.00;;;4.50;;
6821;SDS011;3449;48.728;8.968;2023-09-12T12:06:38;8.10;;;4.53;;
6821;SDS011;3449;48.728;8.968;2023-09-12T12:09:06;4.50;;;4.10;;
6821;SDS011;3449;48.728;8.968;2023-09-12T12:11:33;4.20;;;3.80;;
6821;SDS011;3449;48.728;8.968;2023-09-12T12:14:08;3.90;;;3.40;;
6821;SDS011;3449;48.728;8.968;2023-09-12T12:16:36;6.63;;;3.80;;
6821;SDS011;3449;48.728;8.968;2023-09-12T12:19:03;4.20;;;3.53;;
6821;SDS011;3449;48.728;8.968;2023-09-12T12:21:30;4.37;;;3.97;;
6821;SDS011;3449;48.728;8.968;2023-09-12T12:23:58;4.53;;;4.00;;
6821;SDS011;3449;48.728;8.968;2023-09-12T12:26:26;4.13;;;3.73;;
6821;SDS011;3449;48.728;8.968;2023-09-12T12:28:53;5.77;;;4.50;;
6821;SDS011;3449;48.728;8.968;2023-09-12T12:31:20;5.13;;;4.30;;
6821;SDS011;3449;48.728;8.968;2023-09-12T12:33:52;4.77;;;3.97;;
6821;SDS011;3449;48.728;8.968;2023-09-12T12:36:20;5.40;;;4.70;;
6821;SDS011;3449;48.728;8.968;2023-09-12T12:38:48;7.43;;;4.37;;
6821;SDS011;3449;48.728;8.968;2023-09-12T12:41:15;9.73;;;4.63;;
6821;SDS011;3449;48.728;8.968;2023-09-12T12:43:49;6.13;;;5.17;;
6821;SDS011;3449;48.728;8.968;2023-09-12T12:46:17;9.53;;;6.10;;
6821;SDS011;3449;48.728;8.968;2023-09-12T12:48:44;8.13;;;5.70;;
6821;SDS011;3449;48.728;8.968;2023-09-12T12:51:18;8.97;;;5.27;;
6821;SDS011;3449;48.728;8.968;2023-09-12T12:53:48;11.43;;;6.30;;
6821;SDS011;3449;48.728;8.968;2023-09-12T12:56:17;8.30;;;5.97;;
6821;SDS011;3449;48.728;8.968;2023-09-12T12:58:45;10.07;;;5.70;;
6821;SDS011;3449;48.728;8.968;2023-09-12T13:01:15;7.17;;;5.07;;
6821;SDS011;3449;48.728;8.968;2023-09-12T13:03:42;12.27;;;6.03;;
6821;SDS011;3449;48.728;8.968;2023-09-12T13:06:09;11.67;;;6.33;;
6821;SDS011;3449;48.728;8.968;2023-09-12T13:08:39;10.00;;;5.77;;
6821;SDS011;3449;48.728;8.968;2023-09-12T13:11:08;10.90;;;6.50;;
6821;SDS011;3449;48.728;8.968;2023-09-12T13:13:35;8.67;;;6.17;;
6821;SDS011;3449;48.728;8.968;2023-09-12T13:16:03;7.33;;;5.40;;
6821;SDS011;3449;48.728;8.968;2023-09-12T13:18:32;9.13;;;5.83;;
6821;SDS011;3449;48.728;8.968;2023-09-12T13:21:00;10.03;;;5.80;;
6821;SDS011;3449;48.728;8.968;2023-09-12T13:23:26;9.60;;;5.73;;
6821;SDS011;3449;48.728;8.968;2023-09-12T13:25:53;7.90;;;6.00;;
6821;SDS011;3449;48.728;8.968;2023-09-12T13:28:24;13.13;;;6.47;;
6821;SDS011;3449;48.728;8.968;2023-09-12T13:30:51;10.37;;;6.40;;
6821;SDS011;3449;48.728;8.968;2023-09-12T13:33:20;15.63;;;7.00;;
6821;SDS011;3449;48.728;8.968;2023-09-12T13:35:49;8.13;;;5.60;;
6821;SDS011;3449;48.728;8.968;2023-09-12T13:38:16;7.90;;;5.77;;
6821;SDS011;3449;48.728;8.968;2023-09-12T13:40:44;7.23;;;5.67;;
6821;SDS011;3449;48.728;8.968;2023-09-12T13:43:12;10.53;;;5.47;;
6821;SDS011;3449;48.728;8.968;2023-09-12T13:45:40;7.77;;;5.40;;
6821;SDS011;3449;48.728;8.968;2023-09-12T13:48:07;8.10;;;5.70;;
6821;SDS011;3449;48.728;8.968;2023-09-12T13:50:34;11.40;;;5.57;;
6821;SDS011;3449;48.728;8.968;2023-09-12T13:53:02;9.27;;;6.10;;
6821;SDS011;3449;48.728;8.968;2023-09-12T13:55:31;10.50;;;6.30;;
6821;SDS011;3449;48.728;8.968;2023-09-12T13:57:58;9.80;;;6.10;;
6821;SDS011;3449;48.728;8.968;2023-09-12T14:00:25;7.90;;;5.30;;
6821;SDS011;3449;48.728;8.968;2023-09-12T14:02:52;12.93;;;5.90;;
6821;SDS011;3449;48.728;8.968;2023-09-12T14:05:19;9.53;;;6.27;;
6821;SDS011;3449;48.728;8.968;2023-09-12T14:07:45;8.57;;;4.80;;
6821;SDS011;3449;48.728;8.968;2023-09-12T14:10:14;7.63;;;5.63;;
6821;SDS011;3449;48.728;8.968;2023-09-12T14:12:41;8.30;;;5.33;;
6821;SDS011;3449;48.728;8.968;2023-09-12T14:15:09;6.97;;;5.47;;
6821;SDS011;3449;48.728;8.968;2023-09-12T14:17:39;10.87;;;5.63;;
6821;SDS011;3449;48.728;8.968;2023-09-12T14:20:06;11.13;;;5.23;;
6821;SDS011;3449;48.728;8.968;2023-09-12T14:22:34;11.87;;;5.97;;
6821;SDS011;3449;48.728;8.968;2023-09-12T14:25:01;23.53;;;5.83;;
6821;SDS011;3449;48.728;8.968;2023-09-12T14:27:29;6.20;;;5.60;;
6821;SDS011;3449;48.728;8.968;2023-09-12T14:29:56;10.20;;;5.77;;
6821;SDS011;3449;48.728;8.968;2023-09-12T14:32:24;13.33;;;5.87;;
6821;SDS011;3449;48.728;8.968;2023-09-12T14:34:51;16.57;;;6.60;;
6821;SDS011;3449;48.728;8.968;2023-09-12T14:37:18;12.97;;;6.10;;
6821;SDS011;3449;48.728;8.968;2023-09-12T14:39:44;9.60;;;5.53;;
6821;SDS011;3449;48.728;8.968;2023-09-12T14:42:11;9.20;;;6.00;;
6821;SDS011;3449;48.728;8.968;2023-09-12T14:44:39;13.10;;;6.97;;
6821;SDS011;3449;48.728;8.968;2023-09-12T14:47:06;7.10;;;5.70;;
6821;SDS011;3449;48.728;8.968;2023-09-12T14:49:33;6.63;;;5.47;;
6821;SDS011;3449;48.728;8.968;2023-09-12T14:52:00;9.70;;;6.50;;
6821;SDS011;3449;48.728;8.968;2023-09-12T14:54:27;8.30;;;5.70;;
6821;SDS011;3449;48.728;8.968;2023-09-12T14:56:54;9.30;;;6.13;;
6821;SDS011;3449;48.728;8.968;2023-09-12T14:59:21;7.00;;;4.90;;
6821;SDS011;3449;48.728;8.968;2023-09-12T15:01:49;9.10;;;5.80;;
6821;SDS011;3449;48.728;8.968;2023-09-12T15:04:16;6.20;;;5.47;;
6821;SDS011;3449;48.728;8.968;2023-09-12T15:06:43;7.40;;;5.97;;
6821;SDS011;3449;48.728;8.968;2023-09-12T15:09:10;12.73;;;5.97;;
6821;SDS011;3449;48.728;8.968;2023-09-12T15:11:36;11.00;;;5.73;;
6821;SDS011;3449;48.728;8.968;2023-09-12T15:14:03;8.47;;;6.07;;
6821;SDS011;3449;48.728;8.968;2023-09-12T15:16:30;9.43;;;5.10;;